createdAt,value
2018-06-01T00:03:36.752Z,17.87
2018-06-01T00:07:39.404Z,18.43
2018-06-01T00:11:42.057Z,16.90
2018-06-01T00:15:44.745Z,17.23
2018-06-01T00:19:47.405Z,19.20
2018-06-01T00:23:50.025Z,18.10
2018-06-01T00:27:52.676Z,17.30
2018-06-01T00:31:55.331Z,20.57
2018-06-01T00:35:58.016Z,19.13
2018-06-01T00:40:00.708Z,18.90
2018-06-01T00:44:03.323Z,19.60
2018-06-01T00:48:06.048Z,19.03
2018-06-01T00:52:08.709Z,19.77
2018-06-01T00:56:11.364Z,19.67
2018-06-01T01:00:14.017Z,19.67
2018-06-01T01:04:16.689Z,19.67
2018-06-01T01:08:19.343Z,20.83
2018-06-01T01:12:21.997Z,23.90
2018-06-01T01:16:25.408Z,23.87
2018-06-01T01:20:28.837Z,23.10
2018-06-01T01:24:31.463Z,22.33
2018-06-01T01:28:34.117Z,22.07
2018-06-01T01:32:36.773Z,22.50
2018-06-01T01:36:40.192Z,24.07
2018-06-01T01:40:43.608Z,25.37
2018-06-01T01:44:46.222Z,25.10
2018-06-01T01:48:48.869Z,24.03
2018-06-01T01:52:52.292Z,23.53
2018-06-01T01:56:54.945Z,23.57
2018-06-01T02:00:57.605Z,26.60
2018-06-01T02:05:00.218Z,25.33
2018-06-01T02:09:02.882Z,26.40
2018-06-01T02:13:11.197Z,28.37
2018-06-01T02:17:13.865Z,29.43
2018-06-01T02:21:16.520Z,28.47
2018-06-01T02:25:19.139Z,27.00
2018-06-01T02:29:21.788Z,26.73
2018-06-01T02:33:24.432Z,27.87
2018-06-01T02:37:27.085Z,27.50
2018-06-01T02:41:30.529Z,29.27
2018-06-01T02:45:33.162Z,29.50
2018-06-01T02:49:35.824Z,29.10
2018-06-01T02:53:38.525Z,34.50
2018-06-01T02:57:41.182Z,33.73
2018-06-01T03:01:43.839Z,31.17
2018-06-01T03:05:47.221Z,30.50
2018-06-01T03:09:49.873Z,32.87
2018-06-01T03:13:52.524Z,33.20
2018-06-01T03:17:55.992Z,33.63
2018-06-01T03:21:58.605Z,33.73
2018-06-01T03:26:02.024Z,32.33
2018-06-01T03:30:05.444Z,31.80
2018-06-01T03:34:08.104Z,31.93
2018-06-01T03:38:11.531Z,32.67
2018-06-01T03:42:14.156Z,33.77
2018-06-01T03:46:16.808Z,32.87
2018-06-01T03:50:20.234Z,33.73
2018-06-01T03:54:22.885Z,34.63
2018-06-01T03:58:26.316Z,32.43
2018-06-01T04:02:28.932Z,34.07
2018-06-01T04:06:31.594Z,34.67
2018-06-01T04:10:34.244Z,31.57
2018-06-01T04:14:36.896Z,32.53
2018-06-01T04:18:39.524Z,35.97
2018-06-01T04:22:42.181Z,33.33
2018-06-01T04:26:44.874Z,33.47
2018-06-01T04:30:47.521Z,33.57
2018-06-01T04:34:50.204Z,36.43
2018-06-01T04:38:53.588Z,36.67
2018-06-01T04:42:56.235Z,35.23
2018-06-01T04:46:58.897Z,38.00
2018-06-01T04:51:01.554Z,39.13
2018-06-01T04:55:04.214Z,39.33
2018-06-01T04:59:06.825Z,39.37
2018-06-01T05:03:09.475Z,39.43
2018-06-01T05:07:12.120Z,38.63
2018-06-01T05:11:15.535Z,38.30
2018-06-01T05:15:18.926Z,41.10
2018-06-01T05:19:22.340Z,38.53
2018-06-01T05:23:25.756Z,40.50
2018-06-01T05:27:28.413Z,39.10
2018-06-01T05:31:31.862Z,40.77
2018-06-01T05:35:34.526Z,39.90
2018-06-01T05:39:37.943Z,40.97
2018-06-01T05:43:40.623Z,41.10
2018-06-01T05:47:44.052Z,42.60
2018-06-01T05:51:46.677Z,40.73
2018-06-01T05:55:49.321Z,42.67
2018-06-01T05:59:52.095Z,41.30
2018-06-01T06:03:54.787Z,41.97
2018-06-01T06:07:57.845Z,40.93
2018-06-01T06:12:00.830Z,42.83
2018-06-01T06:16:04.301Z,42.70
2018-06-01T06:20:06.948Z,40.57
2018-06-01T06:24:09.612Z,39.70
2018-06-01T06:28:12.273Z,40.97
2018-06-01T06:32:14.961Z,37.70
2018-06-01T06:36:17.614Z,40.73
2018-06-01T06:40:20.272Z,38.00
2018-06-01T06:44:22.987Z,37.30
2018-06-01T06:48:25.597Z,40.37
2018-06-01T06:52:29.022Z,37.27
2018-06-01T06:56:31.674Z,32.40
2018-06-01T07:00:34.315Z,35.03
2018-06-01T07:04:36.966Z,34.73
2018-06-01T07:08:40.351Z,33.20
2018-06-01T07:12:43.004Z,34.10
2018-06-01T07:16:45.656Z,35.00
2018-06-01T07:20:49.716Z,32.47
2018-06-01T07:24:52.359Z,32.50
2018-06-01T07:28:55.732Z,31.53
2018-06-01T07:32:58.385Z,32.47
2018-06-01T07:37:01.029Z,29.03
2018-06-01T07:41:03.685Z,29.33
2018-06-01T07:45:06.327Z,29.23
2018-06-01T07:49:09.703Z,30.63
2018-06-01T07:53:12.356Z,29.33
2018-06-01T07:57:15.006Z,32.20
2018-06-01T08:01:18.412Z,31.53
2018-06-01T08:05:21.849Z,31.90
2018-06-01T08:09:24.573Z,28.47
2018-06-01T08:13:27.242Z,28.50
2018-06-01T08:17:29.888Z,30.00
2018-06-01T08:21:33.416Z,29.70
2018-06-01T08:25:36.025Z,29.43
2018-06-01T08:29:38.673Z,28.40
2018-06-01T08:33:42.101Z,28.17
2018-06-01T08:37:44.774Z,29.00
2018-06-01T08:41:48.188Z,28.43
2018-06-01T08:45:50.811Z,28.80
2018-06-01T08:49:53.456Z,26.60
2018-06-01T08:53:56.886Z,27.20
2018-06-01T08:57:59.545Z,25.43
2018-06-01T09:02:02.974Z,29.47
2018-06-01T09:06:05.628Z,29.37
2018-06-01T09:10:08.276Z,28.67
2018-06-01T09:14:10.939Z,30.70
2018-06-01T09:18:13.585Z,26.17
2018-06-01T09:22:16.265Z,29.03
2018-06-01T09:26:18.882Z,30.00
2018-06-01T09:34:12.413Z,25.17
2018-06-01T09:38:15.085Z,25.43
2018-06-01T09:42:17.729Z,24.63
2018-06-01T09:46:20.344Z,23.53
2018-06-01T09:50:23.775Z,24.40
2018-06-01T09:54:26.433Z,24.37
2018-06-01T09:58:29.844Z,27.73
2018-06-01T10:02:33.256Z,26.33
2018-06-01T10:06:36.641Z,23.27
2018-06-01T10:10:39.288Z,26.47
2018-06-01T10:14:41.925Z,31.60
2018-06-01T10:18:44.573Z,26.43
2018-06-01T10:22:47.221Z,27.03
2018-06-01T10:26:50.594Z,27.33
2018-06-01T10:30:53.297Z,26.40
2018-06-01T10:34:56.022Z,26.20
2018-06-01T10:39:06.578Z,26.43
2018-06-01T10:43:09.315Z,26.67
2018-06-01T10:47:11.986Z,23.10
2018-06-01T10:51:14.782Z,25.33
2018-06-01T10:55:24.080Z,23.83
2018-06-01T10:59:26.727Z,25.13
2018-06-01T11:03:29.372Z,25.40
2018-06-01T11:07:32.762Z,24.00
2018-06-01T11:11:35.404Z,23.80
2018-06-01T11:15:38.062Z,19.90
2018-06-01T11:19:40.709Z,20.37
2018-06-01T11:23:43.448Z,20.60
2018-06-01T11:27:46.241Z,20.93
2018-06-01T11:31:48.908Z,24.33
2018-06-01T11:35:52.318Z,25.87
2018-06-01T11:39:55.733Z,28.80
2018-06-01T11:43:59.154Z,25.20
2018-06-01T11:48:01.841Z,18.17
2018-06-01T11:52:04.494Z,11.10
2018-06-01T11:56:07.152Z,11.63
2018-06-01T12:00:09.804Z,10.93
2018-06-01T12:04:12.448Z,8.07
2018-06-01T12:08:15.105Z,6.53
2018-06-01T12:12:17.759Z,6.53
2018-06-01T12:16:21.173Z,5.03
2018-06-01T12:20:23.846Z,3.80
2018-06-01T12:24:27.268Z,3.83
2018-06-01T12:28:29.876Z,4.60
2018-06-01T12:32:32.517Z,5.00
2018-06-01T12:36:35.928Z,5.57
2018-06-01T12:40:38.606Z,5.80
2018-06-01T12:44:41.270Z,6.57
2018-06-01T12:48:43.878Z,7.20
2018-06-01T12:52:46.518Z,8.57
2018-06-01T12:56:49.152Z,7.83
2018-06-01T13:00:51.797Z,7.93
2018-06-01T13:04:54.447Z,7.00
2018-06-01T13:08:57.919Z,6.83
2018-06-01T13:13:00.604Z,7.03
2018-06-01T13:17:03.248Z,5.83
2018-06-01T13:21:05.952Z,6.57
2018-06-01T13:25:08.658Z,7.30
2018-06-01T13:29:11.318Z,8.53
2018-06-01T13:33:13.961Z,7.33
2018-06-01T13:37:16.704Z,7.40
2018-06-01T13:41:19.355Z,7.10
2018-06-01T13:45:22.061Z,5.97
2018-06-01T13:49:25.486Z,6.57
2018-06-01T13:53:28.129Z,7.07
2018-06-01T13:57:30.773Z,7.40
2018-06-01T14:01:33.434Z,7.60
2018-06-01T14:05:36.837Z,7.87
2018-06-01T14:09:40.269Z,8.43
2018-06-01T14:13:42.880Z,7.80
2018-06-01T14:17:45.524Z,8.47
2018-06-01T14:21:48.955Z,8.00
2018-06-01T14:25:51.608Z,9.43
2018-06-01T14:29:54.280Z,10.87
2018-06-01T14:33:57.719Z,10.20
2018-06-01T14:38:01.242Z,9.23
2018-06-01T14:42:03.892Z,9.40
2018-06-01T14:46:06.536Z,9.60
2018-06-01T14:50:09.221Z,9.47
2018-06-01T14:54:11.838Z,9.40
2018-06-01T14:58:14.552Z,9.63
2018-06-01T15:02:17.209Z,9.53
2018-06-01T15:06:19.859Z,8.97
2018-06-01T15:10:22.497Z,9.60
2018-06-01T15:14:25.156Z,11.07
2018-06-01T15:18:27.813Z,10.73
2018-06-01T15:22:31.226Z,10.03
2018-06-01T15:26:33.884Z,10.20
2018-06-01T15:30:36.525Z,10.67
2018-06-01T15:34:39.175Z,10.87
2018-06-01T15:38:42.586Z,10.60
2018-06-01T15:42:46.009Z,10.40
2018-06-01T15:46:48.645Z,11.20
2018-06-01T15:50:51.314Z,10.67
2018-06-01T15:54:53.962Z,10.70
2018-06-01T15:58:57.466Z,10.30
2018-06-01T16:03:00.877Z,11.03
2018-06-01T16:07:04.295Z,11.90
2018-06-01T16:11:06.917Z,10.03
2018-06-01T16:15:09.568Z,11.73
2018-06-01T16:19:12.222Z,10.20
2018-06-01T16:23:14.870Z,9.90
2018-06-01T16:27:17.532Z,11.23
2018-06-01T16:31:20.921Z,9.47
2018-06-01T16:35:23.589Z,10.03
2018-06-01T16:39:26.253Z,9.57
2018-06-01T16:43:28.907Z,9.50
2018-06-01T16:47:31.556Z,8.43
2018-06-01T16:51:34.161Z,8.50
2018-06-01T16:55:37.585Z,9.70
2018-06-01T16:59:40.237Z,9.27
2018-06-01T17:03:42.885Z,8.37
2018-06-01T17:07:45.530Z,8.00
2018-06-01T17:11:48.144Z,8.50
2018-06-01T17:15:50.788Z,7.67
2018-06-01T17:19:53.428Z,8.47
2018-06-01T17:23:56.540Z,9.63
2018-06-01T17:27:59.192Z,7.77
2018-06-01T17:32:03.585Z,7.07
2018-06-01T17:36:06.339Z,8.17
2018-06-01T17:40:09.057Z,8.40
2018-06-01T17:44:11.868Z,7.17
2018-06-01T17:48:14.546Z,8.10
2018-06-01T17:52:17.187Z,8.53
2018-06-01T17:56:19.834Z,9.67
2018-06-01T18:00:22.496Z,10.10
2018-06-01T18:04:25.155Z,11.63
2018-06-01T18:08:27.812Z,11.30
2018-06-01T18:12:31.224Z,10.30
2018-06-01T18:16:33.880Z,12.37
2018-06-01T18:20:36.533Z,10.20
2018-06-01T18:24:39.191Z,11.40
2018-06-01T18:28:42.614Z,11.60
2018-06-01T18:32:47.318Z,11.87
2018-06-01T18:36:49.973Z,11.83
2018-06-01T18:40:52.660Z,12.00
2018-06-01T18:44:55.315Z,12.03
2018-06-01T18:48:58.734Z,12.10
2018-06-01T18:53:01.373Z,12.20
2018-06-01T18:57:04.935Z,12.53
2018-06-01T19:01:07.589Z,11.83
2018-06-01T19:05:10.247Z,11.87
2018-06-01T19:09:12.947Z,11.90
2018-06-01T19:13:15.563Z,12.97
2018-06-01T19:17:18.252Z,12.70
2018-06-01T19:21:21.735Z,14.47
2018-06-01T19:25:24.381Z,14.30
2018-06-01T19:29:27.029Z,12.83
2018-06-01T19:33:29.651Z,12.93
2018-06-01T19:37:32.306Z,13.83
2018-06-01T19:41:34.957Z,13.00
2018-06-01T19:45:37.609Z,13.27
2018-06-01T19:49:40.252Z,13.47
2018-06-01T19:53:42.864Z,12.53
2018-06-01T19:57:46.277Z,12.73
2018-06-01T20:01:49.698Z,12.50
2018-06-01T20:05:52.353Z,14.40
2018-06-01T20:09:54.993Z,14.83
2018-06-01T20:13:57.608Z,13.07
2018-06-01T20:18:00.359Z,11.60
2018-06-01T20:22:03.047Z,13.73
2018-06-01T20:26:05.700Z,12.53
2018-06-01T20:30:08.368Z,13.23
2018-06-01T20:34:11.022Z,14.13
2018-06-01T20:38:13.657Z,14.77
2018-06-01T20:42:16.312Z,14.83
2018-06-01T20:46:18.966Z,15.10
2018-06-01T20:50:22.394Z,14.37
2018-06-01T20:54:25.061Z,14.93
2018-06-01T20:58:28.436Z,16.10
2018-06-01T21:02:31.085Z,15.53
2018-06-01T21:06:33.740Z,16.07
2018-06-01T21:10:37.173Z,18.53
2018-06-01T21:14:39.833Z,19.13
2018-06-01T21:18:43.213Z,19.63
2018-06-01T21:22:45.861Z,20.87
2018-06-01T21:26:48.511Z,20.13
2018-06-01T21:30:51.969Z,21.53
2018-06-01T21:34:54.605Z,21.97
2018-06-01T21:38:58.029Z,19.10
2018-06-01T21:43:01.439Z,21.43
2018-06-01T21:47:04.096Z,22.00
2018-06-01T21:51:06.748Z,22.43
2018-06-01T21:55:09.396Z,23.40
2018-06-01T21:59:12.793Z,26.53
2018-06-01T22:03:16.223Z,24.20
2018-06-01T22:07:18.886Z,24.07
2018-06-01T22:11:22.306Z,24.03
2018-06-01T22:15:25.731Z,25.87
2018-06-01T22:19:28.359Z,26.37
2018-06-01T22:23:31.014Z,26.73
2018-06-01T22:27:33.732Z,27.90
2018-06-01T22:31:36.407Z,25.37
2018-06-01T22:35:39.063Z,28.13
2018-06-01T22:39:41.729Z,25.03
2018-06-01T22:43:44.389Z,26.27
2018-06-01T22:47:47.040Z,26.03
2018-06-01T22:51:49.690Z,26.10
2018-06-01T22:55:52.349Z,25.33
2018-06-01T22:59:54.974Z,25.37
2018-06-01T23:03:58.397Z,25.17
2018-06-01T23:08:01.056Z,23.73
2018-06-01T23:12:03.713Z,24.93
2018-06-01T23:16:06.373Z,25.50
2018-06-01T23:20:09.046Z,25.43
2018-06-01T23:24:12.469Z,27.23
2018-06-01T23:28:15.117Z,29.63
2018-06-01T23:32:17.768Z,30.80
2018-06-01T23:36:20.430Z,30.33
2018-06-01T23:40:23.054Z,31.00
2018-06-01T23:44:25.711Z,29.20
2018-06-01T23:48:28.503Z,29.97
2018-06-01T23:52:31.228Z,29.40
2018-06-01T23:56:33.915Z,27.87
